Bartlett, Nebraska
Current Conditions -  °F | °C
As of 9:55 AM on Friday 19 Dec 2014 (Local Time) from KBVN Reporting Station
Haze Haze  
Wind Chill: 19°   Ceiling: 300
Heat Index: 28°   Visibility: 2.5mi
Dew Point: 26°   Wind: 9mph
Humidity: 91%   Direction: 200°SSW
Pressure: 30.15"   Gusts: NA
Location:  41.89°N, 98.55°W
Report Text: KBVN 191555Z AUTO 20008KT 2 1/2SM BR OVC003 M02/M03 A3015 RMK AO2 T10221035
Loading
Personal Weather Stations






























Interactive Weather Map New forecast layout! Learn more

10-Day Weather Forecast

Advertisements
Track Severe Weather on mobile